Reverie TN, Arkansas
Current Conditions -  °F | °C
As of 5:55 AM on Sunday 23 Nov 2014 (Local Time) from KNQA Reporting Station
Overcast Overcast  
Wind Chill: 61°   Ceiling: 1400
Heat Index: 61°   Visibility: 10mi
Dew Point: 55°   Wind: 9mph
Humidity: 82%   Direction: 130°SE
Pressure: 29.77"   Gusts: NA
Location:  35.5514°N, 90.0534°W
Report Text: KNQA 231155Z 13008KT 10SM OVC014 16/13 A2977
Loading
Personal Weather Stations






























Interactive Weather Map New forecast layout! Learn more

10-Day Weather Forecast

Advertisements
Track Severe Weather on mobile